Time;durP1;ratioP1;P1;durP2;ratioP2;P2;SDS_P1;SDS_P2;PMS_P1;PMS_P2;Temp;Humidity;BMP_temperature;BMP_pressure;BME280_temperature;BME280_humidity;BME280_pressure;Samples;Min_cycle;Max_cycle;Signal;HPM_P1;HPM_P2
2022/02/22 00:01:17;;;;;;;25.38;5.68;;;11.30;68.30;;;;;;5060940;28;20028;-43
2022/02/22 00:03:43;;;;;;;20.27;4.88;;;11.30;68.20;;;;;;5061119;28;20024;-43
2022/02/22 00:06:09;;;;;;;27.63;5.82;;;11.30;68.40;;;;;;5060904;28;20025;-43
2022/02/22 00:08:35;;;;;;;25.17;6.32;;;11.30;68.70;;;;;;5060889;28;20024;-43
2022/02/22 00:11:01;;;;;;;24.45;6.13;;;11.30;68.60;;;;;;5060804;28;20032;-43
2022/02/22 00:13:27;;;;;;;23.95;5.57;;;11.30;69.60;;;;;;5060658;28;20021;-43
2022/02/22 00:15:54;;;;;;;18.85;5.03;;;11.30;68.90;;;;;;5060439;28;20497;-43
2022/02/22 00:18:20;;;;;;;28.67;6.55;;;11.30;69.00;;;;;;5060523;28;20025;-43
2022/02/22 00:20:47;;;;;;;20.52;5.38;;;11.30;69.40;;;;;;5060270;28;20131;-43
2022/02/22 00:23:13;;;;;;;22.27;6.15;;;11.30;69.00;;;;;;5060719;28;20388;-43
2022/02/22 00:25:39;;;;;;;21.58;6.38;;;11.40;68.80;;;;;;5060318;28;20033;-43
2022/02/22 00:28:05;;;;;;;21.77;6.22;;;11.40;69.10;;;;;;5060332;28;20029;-43
2022/02/22 00:30:31;;;;;;;24.50;5.35;;;11.40;69.00;;;;;;5060248;28;20035;-44
2022/02/22 00:32:57;;;;;;;23.15;4.82;;;11.50;69.40;;;;;;5060410;28;20029;-43
2022/02/22 00:35:23;;;;;;;20.33;5.05;;;11.50;68.80;;;;;;5060013;28;20025;-43
2022/02/22 00:37:50;;;;;;;20.70;5.30;;;11.50;69.30;;;;;;5060109;28;20070;-43
2022/02/22 00:40:16;;;;;;;23.02;5.97;;;11.60;69.80;;;;;;5060245;28;20037;-43
2022/02/22 00:42:42;;;;;;;20.38;5.30;;;11.60;69.50;;;;;;5060240;28;20044;-43
2022/02/22 00:45:09;;;;;;;25.88;6.05;;;11.60;69.40;;;;;;5060169;28;20033;-44
2022/02/22 00:47:35;;;;;;;26.42;6.38;;;11.60;69.60;;;;;;5060123;28;20096;-43
2022/02/22 00:50:01;;;;;;;22.52;5.18;;;11.70;69.50;;;;;;5059839;28;20060;-44
2022/02/22 00:52:28;;;;;;;24.00;6.20;;;11.70;69.30;;;;;;5059819;28;20021;-43
2022/02/22 00:54:55;;;;;;;23.83;6.03;;;11.70;69.10;;;;;;5059665;28;20036;-43
2022/02/22 00:57:21;;;;;;;19.63;5.93;;;11.80;69.10;;;;;;5059975;28;20021;-44
2022/02/22 00:59:47;;;;;;;19.63;5.28;;;11.80;68.70;;;;;;5058457;28;20033;-43
2022/02/22 01:02:13;;;;;;;21.80;5.45;;;11.80;69.30;;;;;;5059453;28;20485;-44
2022/02/22 01:04:39;;;;;;;25.58;6.13;;;11.90;69.10;;;;;;5059498;28;20032;-44
2022/02/22 01:07:05;;;;;;;27.50;5.70;;;11.90;69.40;;;;;;5059340;28;20093;-44
2022/02/22 01:09:31;;;;;;;29.55;6.53;;;11.90;69.30;;;;;;5059363;28;20112;-44
2022/02/22 01:11:57;;;;;;;21.52;5.85;;;11.90;69.40;;;;;;5059211;28;20024;-44
2022/02/22 01:14:23;;;;;;;16.80;5.22;;;11.90;69.20;;;;;;5059464;28;20021;-46
2022/02/22 01:16:49;;;;;;;24.02;6.45;;;12.00;69.60;;;;;;5059549;28;20108;-44
2022/02/22 01:19:15;;;;;;;22.65;4.75;;;12.00;69.60;;;;;;5059024;28;20025;-44
2022/02/22 01:21:41;;;;;;;19.33;5.38;;;12.00;69.40;;;;;;5059022;28;20061;-45
2022/02/22 01:24:08;;;;;;;21.63;5.00;;;12.00;69.60;;;;;;5058952;28;20087;-46
2022/02/22 01:26:34;;;;;;;28.67;6.18;;;12.00;69.20;;;;;;5059206;28;20465;-45
2022/02/22 01:29:00;;;;;;;22.08;5.78;;;12.10;69.80;;;;;;5057908;28;20108;-46
2022/02/22 01:31:27;;;;;;;24.55;6.13;;;12.10;69.50;;;;;;5058890;28;20033;-44
2022/02/22 01:33:55;;;;;;;20.50;4.97;;;12.10;69.60;;;;;;5058736;28;20113;-44
2022/02/22 01:36:25;;;;;;;23.90;6.18;;;12.10;70.10;;;;;;5059295;28;20020;-44
2022/02/22 01:38:52;;;;;;;23.42;6.18;;;12.10;69.80;;;;;;5058684;28;20383;-44
2022/02/22 01:41:19;;;;;;;23.55;6.25;;;12.10;69.30;;;;;;5058735;28;20025;-44
2022/02/22 01:43:45;;;;;;;21.90;5.47;;;12.10;69.60;;;;;;5058592;28;20451;-44
2022/02/22 01:46:12;;;;;;;27.05;5.40;;;12.20;70.00;;;;;;5058712;28;20017;-44
2022/02/22 01:48:37;;;;;;;24.08;5.30;;;12.10;70.40;;;;;;5058446;28;20104;-44
2022/02/22 01:51:03;;;;;;;20.40;4.88;;;12.20;70.10;;;;;;5058600;28;20060;-44
2022/02/22 01:53:29;;;;;;;18.48;5.20;;;12.20;69.90;;;;;;5058312;28;20032;-44
2022/02/22 01:55:55;;;;;;;21.20;4.63;;;12.20;70.70;;;;;;5058355;28;20013;-45
2022/02/22 01:58:21;;;;;;;17.52;5.20;;;12.20;70.50;;;;;;5059120;28;20039;-45
2022/02/22 02:00:47;;;;;;;21.13;4.68;;;12.20;70.70;;;;;;5058618;28;20355;-44
2022/02/22 02:03:16;;;;;;;19.77;5.53;;;12.20;70.30;;;;;;5058780;28;20033;-44
2022/02/22 02:05:45;;;;;;;21.42;5.47;;;12.20;70.40;;;;;;5058425;28;20024;-45
2022/02/22 02:08:12;;;;;;;22.00;4.97;;;12.20;70.40;;;;;;5058121;28;20028;-47
2022/02/22 02:10:38;;;;;;;22.23;5.07;;;12.20;70.50;;;;;;5058008;28;20021;-44
2022/02/22 02:13:03;;;;;;;18.30;4.63;;;12.20;71.10;;;;;;5058617;28;20060;-43
2022/02/22 02:15:29;;;;;;;21.20;5.35;;;12.20;70.50;;;;;;5058107;28;20021;-43
2022/02/22 02:17:56;;;;;;;20.88;4.57;;;12.30;70.90;;;;;;5058128;28;20049;-44
2022/02/22 02:20:22;;;;;;;21.65;4.53;;;12.30;70.70;;;;;;5058334;28;20082;-44
2022/02/22 02:22:47;;;;;;;16.40;4.38;;;12.30;70.70;;;;;;5057686;28;20049;-44
2022/02/22 02:25:14;;;;;;;16.10;4.05;;;12.30;70.60;;;;;;5058027;28;20032;-43
2022/02/22 02:27:40;;;;;;;21.40;5.05;;;12.30;70.80;;;;;;5057742;28;20028;-44
2022/02/22 02:30:08;;;;;;;20.08;4.68;;;12.30;70.60;;;;;;5057736;28;20032;-43
2022/02/22 02:32:33;;;;;;;22.27;5.35;;;12.30;70.90;;;;;;5057862;28;20105;-44
2022/02/22 02:34:59;;;;;;;24.80;5.28;;;12.30;71.30;;;;;;5057633;28;20057;-45
2022/02/22 02:37:25;;;;;;;20.80;5.20;;;12.40;71.00;;;;;;5057659;28;20398;-44
2022/02/22 02:39:51;;;;;;;17.33;4.78;;;12.30;70.90;;;;;;5057838;28;20029;-44
2022/02/22 02:42:18;;;;;;;16.13;4.40;;;12.40;71.00;;;;;;5057953;28;20396;-44
2022/02/22 02:44:46;;;;;;;18.00;4.65;;;12.40;71.20;;;;;;5057283;28;20032;-44
2022/02/22 02:47:13;;;;;;;21.45;4.88;;;12.40;71.60;;;;;;5057686;28;20032;-44
2022/02/22 02:49:39;;;;;;;17.88;4.07;;;12.40;71.60;;;;;;5057468;28;20025;-45
2022/02/22 02:52:06;;;;;;;19.98;4.93;;;12.40;71.90;;;;;;5057726;28;20480;-44
2022/02/22 02:54:33;;;;;;;21.27;5.25;;;12.40;71.60;;;;;;5057533;28;20060;-45
2022/02/22 02:56:58;;;;;;;17.48;4.43;;;12.40;71.40;;;;;;5057264;28;20021;-45
2022/02/22 02:59:24;;;;;;;20.30;4.47;;;12.40;72.30;;;;;;5057753;28;20032;-45
2022/02/22 03:01:50;;;;;;;18.23;4.20;;;12.40;72.00;;;;;;5057779;28;20040;-44
2022/02/22 03:04:19;;;;;;;21.77;4.32;;;12.40;72.20;;;;;;5057226;28;20029;-44
2022/02/22 03:06:45;;;;;;;16.38;3.80;;;12.40;71.80;;;;;;5057434;28;20538;-44
2022/02/22 03:09:12;;;;;;;20.20;4.00;;;12.40;72.30;;;;;;5056392;28;20036;-43
2022/02/22 03:11:38;;;;;;;20.00;4.68;;;12.30;71.90;;;;;;5057154;28;20420;-44
2022/02/22 03:14:07;;;;;;;20.30;4.47;;;12.40;71.70;;;;;;5057310;28;20064;-44
2022/02/22 03:16:33;;;;;;;17.75;5.07;;;12.40;72.10;;;;;;5057345;28;20025;-44
2022/02/22 03:19:02;;;;;;;18.17;4.22;;;12.40;71.90;;;;;;5057159;28;20017;-43
2022/02/22 03:21:29;;;;;;;17.92;4.45;;;12.40;71.90;;;;;;5057095;28;20064;-44
2022/02/22 03:23:56;;;;;;;15.23;3.55;;;12.40;72.10;;;;;;5059439;28;20145;-44
2022/02/22 03:26:21;;;;;;;14.60;3.53;;;12.40;71.80;;;;;;5061361;28;20017;-43
2022/02/22 03:28:47;;;;;;;17.38;3.80;;;12.40;72.00;;;;;;5061253;28;20021;-44
2022/02/22 03:31:13;;;;;;;17.45;4.00;;;12.40;72.40;;;;;;5061245;28;20047;-44
2022/02/22 03:33:39;;;;;;;18.63;3.90;;;12.40;71.90;;;;;;5061144;28;20033;-45
2022/02/22 03:36:05;;;;;;;17.52;4.18;;;12.40;72.50;;;;;;5061017;28;20025;-44
2022/02/22 03:38:31;;;;;;;17.98;4.25;;;12.40;72.20;;;;;;5060973;28;20029;-43
2022/02/22 03:40:58;;;;;;;19.25;3.40;;;12.40;72.50;;;;;;5059522;28;20021;-46
2022/02/22 03:43:24;;;;;;;21.48;5.43;;;12.40;72.60;;;;;;5060891;28;20032;-44
2022/02/22 03:45:50;;;;;;;16.80;4.25;;;12.40;72.60;;;;;;5061209;28;20415;-44
2022/02/22 03:48:16;;;;;;;18.48;3.95;;;12.40;72.80;;;;;;5059344;28;20033;-46
2022/02/22 03:50:42;;;;;;;19.08;4.18;;;12.40;72.60;;;;;;5060928;28;20029;-44
2022/02/22 03:53:08;;;;;;;13.68;3.83;;;12.30;72.20;;;;;;5059268;28;20083;-44
2022/02/22 03:55:33;;;;;;;16.05;4.32;;;12.30;72.40;;;;;;5060730;28;20037;-44
2022/02/22 03:57:59;;;;;;;16.50;4.15;;;12.30;72.60;;;;;;5060608;28;20469;-44
2022/02/22 04:00:26;;;;;;;14.30;3.33;;;12.30;72.50;;;;;;5060472;28;20036;-44
2022/02/22 04:02:52;;;;;;;17.35;3.95;;;12.30;72.90;;;;;;5060818;28;20017;-43
2022/02/22 04:05:20;;;;;;;15.75;3.83;;;12.30;72.60;;;;;;5060475;28;20032;-44
2022/02/22 04:07:46;;;;;;;16.52;3.83;;;12.30;73.40;;;;;;5060471;28;20093;-44
2022/02/22 04:10:12;;;;;;;18.08;3.85;;;12.30;73.20;;;;;;5060562;28;20032;-46
2022/02/22 04:12:39;;;;;;;16.65;4.15;;;12.30;72.60;;;;;;5060370;28;20029;-44
2022/02/22 04:15:06;;;;;;;14.70;3.60;;;12.30;73.00;;;;;;5060627;28;20082;-44
2022/02/22 04:17:32;;;;;;;18.40;4.22;;;12.30;72.80;;;;;;5060272;28;20465;-45
2022/02/22 04:19:58;;;;;;;15.13;4.07;;;12.30;73.70;;;;;;5060159;28;20029;-44
2022/02/22 04:22:24;;;;;;;15.55;3.65;;;12.30;73.30;;;;;;5059936;28;20049;-43
2022/02/22 04:24:50;;;;;;;15.00;3.83;;;12.30;73.60;;;;;;5060133;28;20029;-44
2022/02/22 04:27:15;;;;;;;14.43;3.75;;;12.30;73.70;;;;;;5060039;28;20365;-44
2022/02/22 04:29:41;;;;;;;17.70;4.03;;;12.30;73.60;;;;;;5060028;28;20056;-44
2022/02/22 04:32:07;;;;;;;16.42;3.92;;;12.30;73.30;;;;;;5059935;28;20029;-44
2022/02/22 04:34:34;;;;;;;21.25;4.15;;;12.30;73.50;;;;;;5058762;28;20035;-44
2022/02/22 04:37:01;;;;;;;23.15;4.63;;;12.30;73.50;;;;;;5060101;28;20109;-45
2022/02/22 04:39:27;;;;;;;16.67;4.78;;;12.40;73.80;;;;;;5060065;28;20028;-44
2022/02/22 04:41:53;;;;;;;16.75;4.03;;;12.40;73.70;;;;;;5059765;28;20021;-44
2022/02/22 04:44:19;;;;;;;20.13;5.18;;;12.40;73.80;;;;;;5059958;28;20025;-44
2022/02/22 04:46:45;;;;;;;18.75;4.55;;;12.40;73.40;;;;;;5059913;28;20032;-44
2022/02/22 04:49:11;;;;;;;15.27;3.88;;;12.40;73.50;;;;;;5059827;28;20025;-43
2022/02/22 04:51:39;;;;;;;17.05;4.20;;;12.40;73.20;;;;;;5059521;28;20501;-43
2022/02/22 04:54:06;;;;;;;19.33;4.50;;;12.40;73.70;;;;;;5059552;28;20084;-44
2022/02/22 04:56:32;;;;;;;21.17;3.83;;;12.40;73.30;;;;;;5059721;28;20040;-43
2022/02/22 04:58:58;;;;;;;17.48;4.43;;;12.50;73.30;;;;;;5059190;28;20032;-44
2022/02/22 05:01:24;;;;;;;19.05;5.28;;;12.50;73.50;;;;;;5059549;28;20092;-44
2022/02/22 05:03:50;;;;;;;17.45;4.47;;;12.50;73.80;;;;;;5059414;28;20431;-45
2022/02/22 05:06:16;;;;;;;18.58;4.55;;;12.50;73.30;;;;;;5059522;28;20033;-45
2022/02/22 05:08:42;;;;;;;22.98;4.88;;;12.50;73.30;;;;;;5059350;28;20021;-43
2022/02/22 05:11:08;;;;;;;23.33;4.85;;;12.50;74.00;;;;;;5059421;28;20017;-46
2022/02/22 05:13:35;;;;;;;20.67;5.32;;;12.50;74.30;;;;;;5059183;28;20495;-44
2022/02/22 05:16:01;;;;;;;25.02;5.75;;;12.50;74.10;;;;;;5058865;28;20439;-44
2022/02/22 05:18:28;;;;;;;24.45;4.60;;;12.50;74.10;;;;;;5059317;28;20017;-44
2022/02/22 05:20:54;;;;;;;23.98;5.60;;;12.50;73.90;;;;;;5058662;28;20065;-43
2022/02/22 05:23:30;;;;;;;25.10;5.88;;;12.50;73.90;;;;;;5058780;28;20025;-44
2022/02/22 05:25:56;;;;;;;21.27;5.07;;;12.50;73.40;;;;;;5058980;28;20055;-45
2022/02/22 05:28:23;;;;;;;28.15;5.05;;;12.50;74.30;;;;;;5058899;28;20028;-44
2022/02/22 05:30:52;;;;;;;30.77;5.45;;;12.60;74.30;;;;;;5058767;28;20378;-45
2022/02/22 05:33:19;;;;;;;23.75;6.28;;;12.60;73.70;;;;;;5058992;28;20025;-47
2022/02/22 05:35:46;;;;;;;26.48;6.15;;;12.60;73.90;;;;;;5058662;28;20029;-44
2022/02/22 05:38:13;;;;;;;27.85;6.35;;;12.60;74.20;;;;;;5058177;28;20517;-47
2022/02/22 05:40:39;;;;;;;31.55;7.22;;;12.60;74.00;;;;;;5058837;28;20528;-44
2022/02/22 05:43:05;;;;;;;28.30;6.28;;;12.60;74.30;;;;;;5058494;28;20021;-46
2022/02/22 05:45:31;;;;;;;28.48;6.03;;;12.60;74.60;;;;;;5058164;28;20028;-47
2022/02/22 05:47:57;;;;;;;26.10;6.88;;;12.60;74.10;;;;;;5058447;28;20084;-49
2022/02/22 05:50:24;;;;;;;28.20;6.22;;;12.60;74.50;;;;;;5058523;28;20040;-49
2022/02/22 05:52:52;;;;;;;37.28;7.88;;;12.60;74.90;;;;;;5057966;28;20025;-46
2022/02/22 05:55:19;;;;;;;30.90;7.03;;;12.60;74.70;;;;;;5058383;28;20033;-45
2022/02/22 05:57:48;;;;;;;29.55;5.97;;;12.60;74.20;;;;;;5058198;28;20084;-47
2022/02/22 06:00:14;;;;;;;28.42;7.50;;;12.60;74.90;;;;;;5057708;28;20053;-45
2022/02/22 06:02:40;;;;;;;26.92;6.70;;;12.60;74.10;;;;;;5058478;28;20039;-45
2022/02/22 06:05:06;;;;;;;29.85;7.18;;;12.60;74.20;;;;;;5056987;28;20029;-47
2022/02/22 06:07:32;;;;;;;25.42;6.15;;;12.60;75.10;;;;;;5058403;28;20516;-44
2022/02/22 06:09:57;;;;;;;27.90;6.70;;;12.60;74.90;;;;;;5058595;28;20025;-44
2022/02/22 06:12:23;;;;;;;25.85;6.40;;;12.60;75.10;;;;;;5058531;28;20029;-46
2022/02/22 06:14:49;;;;;;;32.72;6.70;;;12.60;74.60;;;;;;5058227;28;20025;-46
2022/02/22 06:17:15;;;;;;;27.98;6.40;;;12.60;75.50;;;;;;5058473;28;20548;-50
2022/02/22 06:19:41;;;;;;;25.77;7.00;;;12.60;74.50;;;;;;5058304;28;20021;-46
2022/02/22 06:22:06;;;;;;;25.58;6.82;;;12.60;74.70;;;;;;5058105;28;20073;-48
2022/02/22 06:24:32;;;;;;;33.42;7.00;;;12.60;75.20;;;;;;5058488;28;20025;-47
2022/02/22 06:26:58;;;;;;;28.25;7.72;;;12.60;75.10;;;;;;5058151;28;20025;-50
2022/02/22 06:29:25;;;;;;;24.25;6.35;;;12.60;74.70;;;;;;5058288;28;20104;-44
2022/02/22 06:31:51;;;;;;;25.88;6.35;;;12.60;74.50;;;;;;5058157;28;20089;-46
2022/02/22 06:34:18;;;;;;;34.17;7.50;;;12.60;75.30;;;;;;5057888;28;20061;-47
2022/02/22 06:36:43;;;;;;;23.90;5.82;;;12.60;74.90;;;;;;5058184;28;20025;-49
2022/02/22 06:39:09;;;;;;;21.85;5.97;;;12.60;75.60;;;;;;5057907;28;20110;-46
2022/02/22 06:41:35;;;;;;;23.38;6.38;;;12.60;74.80;;;;;;5058033;28;20025;-46
2022/02/22 06:44:01;;;;;;;26.13;6.75;;;12.60;74.70;;;;;;5057797;28;20032;-48
2022/02/22 06:46:27;;;;;;;25.17;6.82;;;12.60;75.50;;;;;;5057802;28;20032;-45
2022/02/22 06:48:53;;;;;;;28.75;8.02;;;12.60;75.80;;;;;;5057741;28;20029;-47
2022/02/22 06:51:19;;;;;;;22.67;5.78;;;12.60;75.40;;;;;;5057788;28;20048;-47
2022/02/22 06:53:44;;;;;;;27.13;5.88;;;12.60;75.80;;;;;;5058056;28;20017;-45
2022/02/22 06:56:10;;;;;;;24.88;6.70;;;12.60;75.70;;;;;;5057937;28;20082;-45
2022/02/22 06:58:36;;;;;;;25.13;6.25;;;12.60;75.90;;;;;;5058062;28;20036;-45
2022/02/22 07:01:02;;;;;;;24.92;6.03;;;12.60;75.90;;;;;;5057452;28;20028;-46
2022/02/22 07:03:28;;;;;;;18.48;6.32;;;12.70;75.70;;;;;;5057574;28;20021;-45
2022/02/22 07:05:54;;;;;;;20.73;5.93;;;12.60;76.60;;;;;;5057815;28;20615;-47
2022/02/22 07:08:20;;;;;;;16.50;4.32;;;12.70;75.60;;;;;;5058010;28;20346;-48
2022/02/22 07:10:45;;;;;;;18.27;4.88;;;12.60;76.20;;;;;;5057655;28;20074;-47
2022/02/22 07:13:12;;;;;;;16.05;4.78;;;12.60;76.60;;;;;;5057705;28;20104;-49
2022/02/22 07:15:38;;;;;;;13.48;3.83;;;12.70;76.40;;;;;;5057545;28;20032;-46
2022/02/22 07:18:09;;;;;;;19.67;4.15;;;12.60;76.20;;;;;;5057633;28;20033;-45
2022/02/22 07:20:36;;;;;;;18.35;4.85;;;12.60;76.50;;;;;;5057277;28;20071;-49
2022/02/22 07:23:03;;;;;;;18.00;4.32;;;12.70;76.70;;;;;;5057222;28;20049;-47
2022/02/22 07:25:30;;;;;;;23.27;5.13;;;12.60;76.10;;;;;;5057464;28;20025;-47
2022/02/22 07:27:59;;;;;;;15.20;4.05;;;12.60;76.30;;;;;;5057345;28;20040;-45
2022/02/22 07:30:26;;;;;;;14.57;4.20;;;12.70;77.30;;;;;;5057353;28;20021;-45
2022/02/22 07:32:55;;;;;;;20.52;5.45;;;12.70;76.70;;;;;;5057543;28;20386;-44
2022/02/22 07:35:21;;;;;;;21.23;4.35;;;12.60;76.80;;;;;;5057296;28;20080;-45
2022/02/22 07:37:47;;;;;;;18.60;4.22;;;12.70;76.50;;;;;;5057233;28;20033;-44
2022/02/22 07:40:18;;;;;;;19.70;4.22;;;12.60;76.60;;;;;;5057329;28;20459;-44
2022/02/22 07:42:44;;;;;;;15.75;4.50;;;12.70;77.70;;;;;;5057392;28;20052;-47
2022/02/22 07:45:12;;;;;;;17.05;4.10;;;12.70;76.40;;;;;;5057215;28;20501;-47
2022/02/22 07:47:37;;;;;;;14.20;3.47;;;12.70;77.70;;;;;;5057621;28;20072;-45
2022/02/22 07:50:04;;;;;;;16.73;3.90;;;12.70;77.10;;;;;;5057140;28;20028;-46
2022/02/22 07:52:31;;;;;;;19.73;4.28;;;12.60;76.70;;;;;;5057037;28;20029;-48
2022/02/22 07:54:57;;;;;;;16.80;4.72;;;12.70;77.10;;;;;;5056830;28;20040;-47
2022/02/22 07:57:24;;;;;;;16.90;4.15;;;12.70;77.20;;;;;;5055894;28;20025;-48
2022/02/22 07:59:50;;;;;;;15.43;4.00;;;12.70;77.50;;;;;;5057134;28;20103;-49
2022/02/22 08:02:16;;;;;;;13.65;3.60;;;12.70;78.00;;;;;;5056862;28;20476;-46
2022/02/22 08:04:42;;;;;;;15.07;3.95;;;12.70;77.80;;;;;;5057442;28;20354;-46
2022/02/22 08:07:09;;;;;;;18.98;5.47;;;12.70;77.10;;;;;;5057183;28;20029;-49
2022/02/22 08:09:35;;;;;;;16.25;3.95;;;12.70;78.20;;;;;;5058745;28;20044;-46
2022/02/22 08:12:01;;;;;;;16.92;4.90;;;12.70;77.30;;;;;;5060694;28;20029;-47
2022/02/22 08:14:29;;;;;;;20.23;5.30;;;12.70;77.00;;;;;;5060784;28;20107;-50
2022/02/22 08:17:00;;;;;;;15.52;4.40;;;12.70;77.30;;;;;;5060513;28;20039;-48
2022/02/22 08:19:27;;;;;;;14.90;4.10;;;12.70;77.80;;;;;;5060593;28;20028;-47
2022/02/22 08:21:53;;;;;;;16.33;3.72;;;12.70;77.90;;;;;;5060396;28;20045;-44
2022/02/22 08:24:21;;;;;;;11.85;3.20;;;12.70;78.20;;;;;;5060412;28;20025;-47
2022/02/22 08:26:48;;;;;;;13.43;3.20;;;12.70;77.40;;;;;;5059837;28;20083;-49
2022/02/22 08:29:15;;;;;;;11.77;2.70;;;12.70;78.00;;;;;;5060022;28;20084;-47
2022/02/22 08:31:41;;;;;;;14.73;3.55;;;12.80;77.50;;;;;;5060012;28;20048;-45
2022/02/22 08:34:07;;;;;;;17.02;3.65;;;12.70;78.00;;;;;;5059733;28;20116;-45
2022/02/22 08:36:33;;;;;;;14.73;3.83;;;12.70;78.10;;;;;;5059723;28;20051;-45
2022/02/22 08:38:59;;;;;;;18.05;3.92;;;12.70;78.50;;;;;;5059754;28;20052;-46
2022/02/22 08:41:25;;;;;;;17.13;4.15;;;12.70;77.90;;;;;;5059881;28;20022;-50
2022/02/22 08:43:51;;;;;;;11.10;3.22;;;12.80;78.60;;;;;;5059722;28;20025;-47
2022/02/22 08:46:19;;;;;;;12.70;3.42;;;12.70;78.00;;;;;;5059623;28;20021;-46
2022/02/22 08:48:45;;;;;;;17.73;3.75;;;12.80;77.80;;;;;;5059327;28;20491;-44
2022/02/22 08:51:11;;;;;;;18.52;4.75;;;12.80;77.90;;;;;;5059165;28;20017;-44
2022/02/22 08:53:38;;;;;;;17.63;5.00;;;12.80;78.20;;;;;;5059395;28;20021;-44
2022/02/22 08:56:06;;;;;;;14.07;3.40;;;12.80;78.50;;;;;;5058691;28;20529;-45
2022/02/22 08:58:31;;;;;;;16.50;4.53;;;12.80;78.30;;;;;;5059211;28;20025;-44
2022/02/22 09:00:58;;;;;;;16.70;5.45;;;12.80;78.80;;;;;;5059564;28;20049;-44
2022/02/22 09:03:25;;;;;;;14.63;3.85;;;12.80;78.90;;;;;;5059461;28;20040;-44
2022/02/22 09:05:51;;;;;;;17.58;4.78;;;12.80;79.10;;;;;;5059471;28;20085;-44
2022/02/22 09:08:18;;;;;;;14.57;4.25;;;12.80;78.10;;;;;;5059387;28;20029;-45
2022/02/22 09:10:45;;;;;;;20.05;4.32;;;12.90;78.30;;;;;;5058918;28;20506;-46
2022/02/22 09:13:15;;;;;;;17.33;4.80;;;12.80;77.70;;;;;;5059364;28;20056;-45
2022/02/22 09:15:40;;;;;;;17.33;4.13;;;12.80;78.60;;;;;;5059148;28;20021;-45
2022/02/22 09:18:06;;;;;;;17.33;4.28;;;12.80;79.50;;;;;;5059229;28;20032;-45
2022/02/22 09:20:32;;;;;;;17.02;3.65;;;12.80;79.00;;;;;;5058160;28;20032;-45
2022/02/22 09:22:58;;;;;;;17.15;4.07;;;12.90;78.80;;;;;;5058564;28;20543;-46
2022/02/22 09:25:25;;;;;;;14.10;3.67;;;12.90;78.50;;;;;;5059117;28;20485;-44
2022/02/22 09:27:51;;;;;;;14.50;3.35;;;12.90;79.50;;;;;;5057475;28;20082;-44
2022/02/22 09:30:19;;;;;;;12.68;3.58;;;12.90;79.40;;;;;;5058549;28;20044;-45
2022/02/22 09:32:49;;;;;;;22.25;5.13;;;12.90;78.70;;;;;;5058558;28;20024;-45
2022/02/22 09:35:17;;;;;;;18.27;4.72;;;12.90;78.70;;;;;;5058744;28;20039;-46
2022/02/22 09:37:44;;;;;;;16.27;4.63;;;12.90;78.80;;;;;;5058598;28;20028;-44
2022/02/22 09:40:12;;;;;;;16.80;4.63;;;12.90;79.40;;;;;;5058645;28;20381;-44
2022/02/22 09:42:38;;;;;;;18.38;5.00;;;13.00;78.70;;;;;;5059000;28;20053;-45
2022/02/22 09:45:08;;;;;;;20.02;8.15;;;12.90;78.90;;;;;;5058448;28;20033;-44
2022/02/22 09:47:34;;;;;;;26.95;6.32;;;12.90;78.60;;;;;;5058654;28;20039;-44
2022/02/22 09:50:01;;;;;;;21.02;5.20;;;13.00;78.90;;;;;;5058415;28;20029;-46
2022/02/22 09:52:27;;;;;;;18.80;4.68;;;13.00;78.90;;;;;;5058451;28;20021;-44
2022/02/22 09:54:53;;;;;;;22.23;6.40;;;13.00;78.50;;;;;;5058429;28;20394;-44
2022/02/22 09:57:18;;;;;;;19.67;4.72;;;13.00;79.50;;;;;;5058015;28;20025;-44
2022/02/22 09:59:44;;;;;;;18.48;5.15;;;13.00;79.80;;;;;;5058148;28;20096;-44
2022/02/22 10:02:10;;;;;;;19.67;5.45;;;13.00;80.00;;;;;;5058261;28;20039;-43
2022/02/22 10:04:44;;;;;;;14.02;5.00;;;13.00;79.30;;;;;;5058276;28;20033;-43
2022/02/22 10:07:10;;;;;;;16.37;4.50;;;13.00;79.50;;;;;;5058322;28;20021;-44
2022/02/22 10:09:55;;;;;;;16.92;4.10;;;13.00;79.30;;;;;;5058161;28;20044;-43
2022/02/22 10:12:32;;;;;;;15.73;4.38;;;13.00;78.60;;;;;;5058227;28;20033;-43
2022/02/22 10:14:58;;;;;;;18.73;4.05;;;13.00;80.30;;;;;;5058060;28;20429;-44
2022/02/22 10:17:25;;;;;;;18.85;4.18;;;13.10;79.40;;;;;;5058138;28;20083;-43
2022/02/22 10:20:02;;;;;;;22.85;4.43;;;13.10;79.60;;;;;;5057319;28;20032;-44
2022/02/22 10:22:31;;;;;;;22.95;5.32;;;13.10;80.10;;;;;;5057361;28;20102;-46
2022/02/22 10:25:09;;;;;;;20.08;4.45;;;13.10;79.00;;;;;;5057753;28;20029;-44
2022/02/22 10:27:50;;;;;;;20.23;4.25;;;13.10;79.00;;;;;;5057981;28;20486;-44
2022/02/22 10:30:29;;;;;;;20.75;5.22;;;13.20;79.10;;;;;;5057757;28;20116;-44
2022/02/22 10:32:56;;;;;;;18.85;4.55;;;13.10;79.50;;;;;;5057204;28;20033;-44
2022/02/22 10:35:32;;;;;;;20.25;5.55;;;13.20;79.40;;;;;;5057301;28;20571;-44
2022/02/22 10:37:59;;;;;;;20.42;4.72;;;13.20;78.90;;;;;;5057031;28;20031;-45
2022/02/22 10:40:30;;;;;;;24.10;5.07;;;13.20;79.40;;;;;;5057308;28;20021;-46
2022/02/22 10:42:56;;;;;;;24.67;5.80;;;13.30;79.20;;;;;;5057050;28;20029;-44
2022/02/22 10:45:23;;;;;;;19.85;5.45;;;13.30;79.10;;;;;;5057508;28;20048;-47
2022/02/22 10:47:49;;;;;;;21.10;4.28;;;13.40;78.80;;;;;;5057339;28;20070;-45
2022/02/22 10:50:16;;;;;;;21.48;4.63;;;13.40;79.10;;;;;;5056939;28;20021;-44
2022/02/22 10:52:42;;;;;;;20.95;5.43;;;13.40;79.40;;;;;;5057205;28;20392;-46
2022/02/22 10:55:08;;;;;;;20.73;4.80;;;13.50;79.20;;;;;;5056747;28;20021;-44
2022/02/22 10:57:35;;;;;;;22.58;4.55;;;13.50;79.20;;;;;;5057071;28;20108;-44
2022/02/22 11:00:03;;;;;;;18.13;5.22;;;13.50;79.40;;;;;;5056867;28;20534;-44
2022/02/22 11:02:29;;;;;;;21.00;4.90;;;13.60;79.00;;;;;;5057270;28;20013;-45
2022/02/22 11:04:55;;;;;;;19.15;4.28;;;13.50;78.80;;;;;;5057301;28;20077;-48
2022/02/22 11:07:23;;;;;;;16.83;4.43;;;13.60;79.40;;;;;;5056780;28;20028;-48
2022/02/22 11:09:50;;;;;;;19.85;4.45;;;13.60;78.50;;;;;;5056761;28;20037;-46
2022/02/22 11:12:29;;;;;;;15.93;4.55;;;13.60;79.20;;;;;;5056962;28;20037;-44
2022/02/22 11:15:09;;;;;;;18.92;4.32;;;13.60;78.30;;;;;;5056916;28;20032;-44
2022/02/22 11:17:51;;;;;;;18.08;4.28;;;13.50;78.50;;;;;;5057174;28;20489;-46
2022/02/22 11:20:33;;;;;;;18.30;3.83;;;13.50;78.50;;;;;;5057169;28;20036;-44
2022/02/22 11:23:00;;;;;;;19.00;5.50;;;13.60;78.70;;;;;;5056646;28;20052;-44
2022/02/22 11:25:29;;;;;;;18.17;3.90;;;13.60;78.80;;;;;;5057077;28;20103;-46
2022/02/22 11:28:02;;;;;;;22.95;4.80;;;13.60;79.70;;;;;;5057024;28;20039;-44
2022/02/22 11:30:30;;;;;;;20.33;4.60;;;13.60;78.70;;;;;;5056780;28;20021;-47
2022/02/22 11:33:08;;;;;;;17.30;4.97;;;13.60;79.30;;;;;;5056668;28;20432;-44
2022/02/22 11:35:51;;;;;;;21.45;5.22;;;13.60;79.20;;;;;;5056870;28;20037;-46
2022/02/22 11:38:18;;;;;;;20.27;4.40;;;13.70;78.60;;;;;;5056945;28;20029;-46
2022/02/22 11:40:44;;;;;;;22.52;5.40;;;13.70;78.80;;;;;;5056850;28;20037;-48
2022/02/22 11:43:15;;;;;;;18.45;4.60;;;13.70;79.30;;;;;;5056780;28;20441;-44
2022/02/22 11:45:46;;;;;;;19.65;6.30;;;13.70;79.00;;;;;;5059901;28;20032;-47
2022/02/22 11:48:15;;;;;;;20.77;5.63;;;13.80;78.80;;;;;;5060395;28;20044;-45
2022/02/22 11:50:44;;;;;;;21.55;5.13;;;13.80;78.20;;;;;;5060583;28;20047;-49
2022/02/22 11:53:12;;;;;;;21.45;6.35;;;13.80;78.90;;;;;;5061020;28;20102;-44
2022/02/22 11:55:38;;;;;;;21.42;5.50;;;13.90;78.70;;;;;;5060346;28;20113;-47
2022/02/22 11:58:22;;;;;;;22.85;5.78;;;13.90;78.50;;;;;;5060455;28;20106;-46
2022/02/22 12:01:16;;;;;;;23.10;5.63;;;13.90;78.40;;;;;;5060462;28;20028;-45
2022/02/22 12:03:45;;;;;;;21.25;5.38;;;14.00;77.90;;;;;;5060685;28;20112;-46
2022/02/22 12:06:11;;;;;;;21.88;6.80;;;14.00;78.40;;;;;;5060694;28;20021;-45
2022/02/22 12:08:46;;;;;;;25.17;5.30;;;14.10;78.60;;;;;;5060238;28;20370;-44
2022/02/22 12:11:17;;;;;;;20.75;4.93;;;14.10;78.70;;;;;;5060220;28;20055;-47
2022/02/22 12:14:00;;;;;;;22.48;5.53;;;14.10;79.00;;;;;;5060557;28;20504;-44
2022/02/22 12:16:29;;;;;;;20.05;4.78;;;14.20;78.30;;;;;;5059957;28;20056;-45
2022/02/22 12:18:57;;;;;;;19.17;4.70;;;14.20;78.40;;;;;;5060030;28;20088;-44
2022/02/22 12:21:25;;;;;;;20.73;5.75;;;14.30;79.00;;;;;;5059642;28;20053;-48
2022/02/22 12:23:51;;;;;;;25.60;6.10;;;14.30;78.50;;;;;;5059676;28;20028;-52
2022/02/22 12:26:20;;;;;;;26.92;6.65;;;14.30;79.70;;;;;;5059786;28;20071;-52
2022/02/22 12:28:49;;;;;;;23.08;5.60;;;14.50;80.90;;;;;;5059634;28;20074;-54
2022/02/22 12:31:34;;;;;;;20.05;4.88;;;14.90;79.90;;;;;;5059499;28;20029;-54
2022/02/22 12:34:08;;;;;;;20.58;5.55;;;15.50;78.30;;;;;;5059363;28;20361;-49
2022/02/22 12:36:45;;;;;;;24.73;4.75;;;15.80;74.40;;;;;;5059382;28;20040;-54